Time;durP1;ratioP1;P1;durP2;ratioP2;P2;SDS_P1;SDS_P2;PMS_P1;PMS_P2;Temp;Humidity;BMP_temperature;BMP_pressure;BME280_temperature;BME280_humidity;BME280_pressure;Samples;Min_cycle;Max_cycle;Signal;HPM_P1;HPM_P2
2022/05/30 00:00:32;;;;;;;1.93;0.90;;;;;;;9.31;100.00;101343.84;5002796;28;20196;-90
2022/05/30 00:02:57;;;;;;;1.83;0.80;;;;;;;9.56;100.00;101394.56;5001079;28;20212;-90
2022/05/30 00:05:24;;;;;;;2.70;0.80;;;;;;;9.34;100.00;101361.38;4998123;28;20523;-89
2022/05/30 00:07:50;;;;;;;3.27;0.77;;;;;;;9.66;100.00;101387.09;5015357;28;20263;-89
2022/05/30 00:10:16;;;;;;;4.13;1.00;;;;;;;9.55;100.00;101377.66;4995974;28;20440;-87
2022/05/30 00:12:43;;;;;;;3.80;1.00;;;;;;;9.20;100.00;101336.22;5003505;28;20457;-89
2022/05/30 00:15:14;;;;;;;3.43;0.67;;;;;;;9.51;100.00;101411.13;4995455;28;20538;-89
2022/05/30 00:17:40;;;;;;;1.70;0.87;;;;;;;9.00;100.00;101347.38;4999821;28;20515;-88
2022/05/30 00:20:07;;;;;;;1.47;0.80;;;;;;;9.39;100.00;101378.59;5013893;28;20609;-88
2022/05/30 00:22:32;;;;;;;2.87;0.80;;;;;;;8.55;100.00;101290.09;4999360;28;20624;-88
2022/05/30 00:24:58;;;;;;;4.90;1.00;;;;;;;8.95;100.00;101343.56;4999009;28;20475;-89
2022/05/30 00:27:23;;;;;;;1.10;0.60;;;;;;;9.07;100.00;101334.13;5002773;28;20721;-89
2022/05/30 00:29:48;;;;;;;2.27;0.90;;;;;;;9.09;100.00;101337.47;5001955;28;20196;-90
2022/05/30 00:32:14;;;;;;;2.70;1.00;;;;;;;9.66;100.00;101387.09;5003868;28;20180;-91
2022/05/30 00:34:40;;;;;;;3.80;1.00;;;;;;;9.54;100.00;101372.47;5005460;28;20197;-93
2022/05/30 00:37:06;;;;;;;1.60;0.80;;;;;;;9.74;100.00;101344.16;5004240;28;20201;-92
2022/05/30 00:39:34;;;;;;;2.77;0.80;;;;;;;9.29;100.00;101262.91;5005503;28;20472;-92
2022/05/30 00:42:15;;;;;;;2.20;1.00;;;;;;;9.82;100.00;101346.78;5001845;28;20545;-90
2022/05/30 00:44:43;;;;;;;5.43;0.90;;;;;;;9.61;100.00;101365.41;5003885;28;20459;-89
2022/05/30 00:47:10;;;;;;;1.83;0.90;;;;;;;9.57;100.00;101335.44;5004373;28;20459;-91
2022/05/30 00:49:37;;;;;;;6.10;0.87;;;;;;;9.04;100.00;101275.63;5000062;28;20440;-91
2022/05/30 00:52:05;;;;;;;5.50;0.80;;;;;;;9.23;100.00;101336.72;4999987;28;20451;-90
2022/05/30 00:54:42;;;;;;;2.33;0.70;;;;;;;9.22;100.00;101296.72;5002373;28;20947;-89
2022/05/30 00:57:20;;;;;;;2.37;0.80;;;;;;;8.75;100.00;101215.63;5001883;28;20462;-91
2022/05/30 01:00:00;;;;;;;4.10;0.87;;;;;;;9.62;100.00;101357.16;5005013;28;20435;-94
2022/05/30 01:02:30;;;;;;;1.47;0.70;;;;;;;9.48;100.00;101372.16;5004581;28;20432;-94
2022/05/30 01:07:41;;;;;;;1.37;0.70;;;;;;;8.99;100.00;101368.97;5002171;28;20883;-93
2022/05/30 01:10:09;;;;;;;1.93;0.80;;;;;;;9.11;100.00;101358.69;5003267;28;20443;-93
2022/05/30 01:12:44;;;;;;;2.13;0.80;;;;;;;8.66;100.00;101293.41;5004154;28;20474;-92
2022/05/30 01:15:14;;;;;;;1.33;0.63;;;;;;;8.74;100.00;101366.41;5001044;28;20431;-92
2022/05/30 01:17:54;;;;;;;1.53;0.70;;;;;;;8.39;100.00;101300.88;5017197;28;20455;-90
2022/05/30 01:20:39;;;;;;;2.20;0.90;;;;;;;9.03;100.00;101346.22;5000076;28;20436;-89
2022/05/30 01:23:29;;;;;;;1.17;0.67;;;;;;;9.34;100.00;101362.22;4998766;28;20439;-91
2022/05/30 01:26:17;;;;;;;4.10;0.93;;;;;;;9.20;100.00;101365.66;5002145;28;20439;-90
2022/05/30 01:28:55;;;;;;;1.63;0.80;;;;;;;9.36;100.00;101370.91;5000752;28;20554;-91
2022/05/30 01:31:21;;;;;;;2.00;0.70;;;;;;;9.25;100.00;101361.44;5003041;28;20442;-89
2022/05/30 01:33:47;;;;;;;1.90;0.90;;;;;;;9.21;100.00;101360.13;4999835;28;20535;-91
2022/05/30 01:36:12;;;;;;;1.47;0.67;;;;;;;8.36;100.00;101229.88;4999934;28;20436;-91
2022/05/30 01:38:38;;;;;;;3.00;0.70;;;;;;;8.72;100.00;101284.69;5002404;28;20209;-91
2022/05/30 01:41:03;;;;;;;1.23;0.77;;;;;;;8.85;100.00;101361.66;5003329;28;20197;-90
2022/05/30 01:43:29;;;;;;;1.47;0.90;;;;;;;8.44;100.00;101244.22;4996959;28;20193;-91
2022/05/30 01:45:54;;;;;;;1.17;0.90;;;;;;;8.74;100.00;101272.81;5000958;28;20186;-87
2022/05/30 01:48:20;;;;;;;1.03;0.70;;;;;;;9.11;100.00;101346.13;4999289;28;20209;-88
2022/05/30 01:50:47;;;;;;;1.50;0.60;;;;;;;9.13;100.00;101362.03;5001273;28;20609;-89
2022/05/30 01:53:13;;;;;;;1.27;0.70;;;;;;;7.95;100.00;101193.63;5002537;28;20692;-91
2022/05/30 01:55:38;;;;;;;2.97;0.90;;;;;;;9.09;100.00;101345.50;5001153;28;22707;-90
2022/05/30 01:58:04;;;;;;;2.83;0.70;;;;;;;8.72;100.00;101269.47;5005876;28;20459;-90
2022/05/30 02:00:30;;;;;;;2.27;0.80;;;;;;;8.72;100.00;101319.44;5000550;28;20193;-91
2022/05/30 02:02:56;;;;;;;2.30;0.93;;;;;;;8.56;100.00;101254.34;5005786;28;20519;-90
2022/05/30 02:05:21;;;;;;;3.00;0.90;;;;;;;8.65;100.00;101236.44;5001115;28;20482;-89
2022/05/30 02:07:47;;;;;;;1.43;0.80;;;;;;;8.90;100.00;101309.31;5001675;28;20580;-89
2022/05/30 02:10:12;;;;;;;1.50;0.67;;;;;;;8.09;100.00;101172.34;5004292;28;20272;-89
2022/05/30 02:12:37;;;;;;;1.67;0.70;;;;;;;8.13;100.00;101210.25;5002807;28;20208;-88
2022/05/30 02:15:03;;;;;;;3.90;0.80;;;;;;;8.74;100.00;101342.34;4999814;28;20196;-89
2022/05/30 02:17:32;;;;;;;1.80;0.73;;;;;;;8.79;100.00;101333.78;4999216;28;20210;-89
2022/05/30 02:19:57;;;;;;;1.37;0.70;;;;;;;7.79;100.00;101189.19;4998564;28;20444;-89
2022/05/30 02:22:24;;;;;;;2.00;0.80;;;;;;;7.87;100.00;101190.00;5006572;28;20834;-88
2022/05/30 02:24:49;;;;;;;2.30;1.10;;;;;;;8.44;100.00;101246.88;5004530;28;20713;-89
2022/05/30 02:27:17;;;;;;;1.47;0.70;;;;;;;9.01;100.00;101332.16;5004212;28;20566;-90
2022/05/30 02:29:43;;;;;;;2.60;1.10;;;;;;;8.02;100.00;101200.78;5006390;28;20185;-91
2022/05/30 02:32:09;;;;;;;2.80;0.80;;;;;;;8.74;100.00;101339.66;4999124;28;20444;-88
2022/05/30 02:37:19;;;;;;;2.10;0.77;;;;;;;8.72;100.00;101335.50;5002812;28;20490;-89
2022/05/30 02:39:45;;;;;;;3.00;0.90;;;;;;;7.73;100.00;101192.53;4998556;28;20472;-90
2022/05/30 02:42:11;;;;;;;2.47;0.90;;;;;;;8.60;100.00;101305.63;5003276;28;20224;-89
2022/05/30 02:44:37;;;;;;;2.10;0.67;;;;;;;8.27;100.00;101283.50;4998659;28;20188;-88
2022/05/30 02:47:03;;;;;;;1.03;0.70;;;;;;;8.67;100.00;101335.19;5001291;28;20455;-89
2022/05/30 02:49:29;;;;;;;1.70;0.70;;;;;;;8.40;100.00;101273.13;4998395;28;20439;-89
2022/05/30 02:51:55;;;;;;;3.33;1.00;;;;;;;8.73;100.00;101313.09;5000935;28;20857;-89
2022/05/30 02:54:20;;;;;;;3.30;0.90;;;;;;;7.89;100.00;101193.28;4999213;28;20284;-89
2022/05/30 02:56:54;;;;;;;4.43;0.80;;;;;;;8.51;100.00;101283.44;5003738;28;20448;-89
2022/05/30 02:59:20;;;;;;;2.00;0.70;;;;;;;8.74;100.00;101345.03;5000017;28;20567;-88
2022/05/30 03:01:46;;;;;;;2.50;0.90;;;;;;;8.72;100.00;101344.34;5000407;28;20476;-87
2022/05/30 03:04:12;;;;;;;1.53;0.80;;;;;;;8.57;100.00;101314.84;5001439;28;20869;-88
2022/05/30 03:06:38;;;;;;;2.50;0.70;;;;;;;8.02;100.00;101230.16;4999712;28;20185;-88
2022/05/30 03:09:05;;;;;;;3.40;0.90;;;;;;;8.77;100.00;101370.59;5002016;28;20554;-89
2022/05/30 03:11:30;;;;;;;2.03;0.70;;;;;;;8.30;100.00;101257.28;5000066;28;20291;-89
2022/05/30 03:13:56;;;;;;;1.40;0.70;;;;;;;8.60;100.00;101286.91;5000421;28;20554;-89
2022/05/30 03:16:21;;;;;;;2.63;1.00;;;;;;;7.98;100.00;101182.59;4999791;28;20531;-87
2022/05/30 03:18:47;;;;;;;3.40;1.00;;;;;;;8.23;100.00;101210.88;4999258;28;20291;-88
2022/05/30 03:21:12;;;;;;;2.40;1.10;;;;;;;9.13;100.00;101338.78;4999028;28;20209;-89
2022/05/30 03:23:38;;;;;;;4.03;1.10;;;;;;;8.62;100.00;101290.25;5003802;28;20319;-90
2022/05/30 03:26:04;;;;;;;3.00;1.33;;;;;;;8.98;100.00;101343.22;5002842;28;20550;-91
2022/05/30 03:28:31;;;;;;;3.20;1.20;;;;;;;9.07;100.00;101338.66;5001314;28;20275;-89
2022/05/30 03:30:57;;;;;;;2.47;1.37;;;;;;;8.90;100.00;101253.13;4998645;28;20483;-89
2022/05/30 03:33:23;;;;;;;3.43;1.10;;;;;;;8.59;100.00;101208.53;4999713;28;20998;-90
2022/05/30 03:35:49;;;;;;;4.63;1.10;;;;;;;9.31;100.00;101302.84;5004216;28;20443;-92
2022/05/30 03:38:14;;;;;;;6.93;1.40;;;;;;;9.55;100.00;101333.97;5002935;28;20209;-92
2022/05/30 03:40:40;;;;;;;4.13;1.23;;;;;;;8.47;100.00;101233.16;5006336;28;20272;-91
2022/05/30 03:43:10;;;;;;;5.63;1.13;;;;;;;8.66;100.00;101245.28;5005119;28;20668;-92
2022/05/30 03:45:41;;;;;;;2.80;1.30;;;;;;;9.48;100.00;101339.19;5005026;28;20695;-94
2022/05/30 03:48:08;;;;;;;1.80;1.23;;;;;;;9.21;100.00;101349.44;5002052;28;20472;-93
2022/05/30 03:50:34;;;;;;;3.13;1.20;;;;;;;9.43;100.00;101352.28;5018157;28;20818;-93
2022/05/30 03:53:08;;;;;;;5.10;1.20;;;;;;;9.49;100.00;101356.94;5003459;28;20503;-92
2022/05/30 03:55:39;;;;;;;5.50;1.23;;;;;;;9.42;100.00;101343.41;5006497;28;20185;-94
2022/05/30 03:58:06;;;;;;;5.57;1.33;;;;;;;9.30;100.00;101352.88;5001027;28;20483;-92
2022/05/30 04:00:33;;;;;;;4.83;1.63;;;;;;;8.75;100.00;101253.06;5003054;28;21808;-92
2022/05/30 04:02:59;;;;;;;6.70;1.03;;;;;;;9.39;100.00;101349.13;5004588;28;20951;-94
2022/05/30 04:05:25;;;;;;;1.93;1.00;;;;;;;8.62;100.00;101260.84;5006396;28;20444;-94
2022/05/30 04:07:51;;;;;;;2.67;1.13;;;;;;;9.27;100.00;101347.88;5007143;23;20860;-80
2022/05/30 04:10:16;;;;;;;5.43;1.23;;;;;;;8.92;100.00;101290.41;4976129;28;20440;-81
2022/05/30 04:12:42;;;;;;;4.30;1.00;;;;;;;8.61;100.00;101240.44;4975852;28;20301;-80
2022/05/30 04:15:15;;;;;;;1.83;0.80;;;;;;;9.32;100.00;101356.22;4975359;28;20320;-81
2022/05/30 04:17:40;;;;;;;6.27;1.20;;;;;;;9.25;100.00;101360.59;4973021;28;20212;-81
2022/05/30 04:20:07;;;;;;;2.23;1.00;;;;;;;9.48;100.00;101355.25;4977465;28;20445;-80
2022/05/30 04:22:33;;;;;;;3.90;1.50;;;;;;;8.97;100.00;101283.53;4980911;28;20546;-81
2022/05/30 04:24:58;;;;;;;4.07;1.90;;;;;;;9.42;100.00;101354.13;4977215;28;20452;-80
2022/05/30 04:27:24;;;;;;;4.20;1.03;;;;;;;7.99;100.00;101179.75;4981428;28;20464;-80
2022/05/30 04:29:50;;;;;;;4.37;1.13;;;;;;;8.77;100.00;101338.50;4978102;28;20316;-80
2022/05/30 04:32:18;;;;;;;11.77;1.73;;;;;;;8.24;100.00;101188.47;4978583;28;20186;-80
2022/05/30 04:34:45;;;;;;;3.60;1.53;;;;;;;9.48;100.00;101355.25;4982656;28;20209;-82
2022/05/30 04:37:11;;;;;;;4.40;1.03;;;;;;;9.24;100.00;101311.59;4979524;28;20447;-80
2022/05/30 04:39:36;;;;;;;5.50;1.40;;;;;;;9.19;100.00;101340.72;4983105;28;20465;-86
2022/05/30 04:42:03;;;;;;;1.40;0.93;;;;;;;9.18;100.00;101332.91;4984468;28;20169;-85
2022/05/30 04:44:28;;;;;;;3.10;1.00;;;;;;;9.15;100.00;101303.81;4989625;28;20218;-85
2022/05/30 04:46:55;;;;;;;4.40;0.90;;;;;;;9.40;100.00;101366.03;4989526;28;20769;-86
2022/05/30 04:49:21;;;;;;;2.63;1.40;;;;;;;9.05;100.00;101261.22;4988207;28;20210;-86
2022/05/30 04:51:47;;;;;;;3.00;0.90;;;;;;;9.40;100.00;101352.63;4990950;28;20440;-86
2022/05/30 04:54:13;;;;;;;5.27;1.03;;;;;;;9.26;100.00;101308.75;4988508;28;20449;-86
2022/05/30 04:56:38;;;;;;;1.93;0.97;;;;;;;8.96;100.00;101299.75;4984665;28;21023;-88
2022/05/30 04:59:04;;;;;;;4.43;1.17;;;;;;;9.65;100.00;101362.16;4988890;28;20288;-87
2022/05/30 05:01:30;;;;;;;3.03;1.47;;;;;;;9.27;100.00;101327.31;4988657;28;20186;-88
2022/05/30 05:03:55;;;;;;;2.53;1.30;;;;;;;9.71;100.00;101363.28;4989877;28;20495;-89
2022/05/30 05:06:21;;;;;;;4.03;1.10;;;;;;;9.15;100.00;101271.69;4989081;28;20440;-88
2022/05/30 05:09:16;;;;;;;3.07;0.97;;;;;;;8.83;100.00;101250.34;4983385;28;20693;-87
2022/05/30 05:11:42;;;;;;;2.60;1.10;;;;;;;9.06;100.00;101241.50;4971077;28;20232;-84
2022/05/30 05:14:08;;;;;;;3.13;1.07;;;;;;;9.40;100.00;101323.19;4985884;28;20471;-84
2022/05/30 05:16:33;;;;;;;1.23;0.90;;;;;;;9.28;100.00;101345.03;4987691;28;20846;-82
2022/05/30 05:19:00;;;;;;;1.73;0.97;;;;;;;8.19;100.00;101228.28;4986125;28;20456;-84
2022/05/30 05:21:29;;;;;;;3.00;1.40;;;;;;;9.49;100.00;101362.31;4983236;28;20272;-85
2022/05/30 05:23:56;;;;;;;6.00;1.40;;;;;;;9.72;100.00;101370.31;4990958;28;20444;-86
2022/05/30 05:26:22;;;;;;;1.00;0.60;;;;;;;9.60;100.00;101347.63;4989841;28;20455;-86
2022/05/30 05:28:48;;;;;;;3.13;1.00;;;;;;;9.59;100.00;101362.88;4990774;28;20452;-85
2022/05/30 05:31:34;;;;;;;2.40;1.00;;;;;;;8.99;100.00;101243.19;4988647;28;20661;-85
2022/05/30 05:34:01;;;;;;;2.70;0.90;;;;;;;9.22;100.00;101302.06;4992644;28;20587;-85
2022/05/30 05:36:29;;;;;;;4.23;1.10;;;;;;;9.81;100.00;101371.09;4989008;28;20443;-85
2022/05/30 05:38:55;;;;;;;3.57;1.30;;;;;;;9.69;100.00;101333.16;4989354;28;20456;-87
2022/05/30 05:41:21;;;;;;;3.13;1.00;;;;;;;9.65;100.00;101372.03;4990885;28;20444;-86
2022/05/30 05:43:47;;;;;;;1.93;1.00;;;;;;;9.42;100.00;101382.75;4987630;28;20171;-85
2022/05/30 05:46:18;;;;;;;2.50;1.00;;;;;;;9.71;100.00;101384.72;4991377;28;20185;-86
2022/05/30 05:48:44;;;;;;;2.77;1.10;;;;;;;9.81;100.00;101373.78;5002250;28;20488;-87
2022/05/30 05:51:10;;;;;;;1.73;0.90;;;;;;;9.66;100.00;101369.19;4991896;28;20448;-87
2022/05/30 05:53:36;;;;;;;1.83;0.97;;;;;;;9.14;100.00;101289.59;4989646;28;20197;-86
2022/05/30 05:56:15;;;;;;;5.90;1.30;;;;;;;9.94;100.00;101377.47;4988759;28;20451;-87
2022/05/30 05:58:40;;;;;;;2.27;1.00;;;;;;;9.31;100.00;101263.53;4987497;28;20217;-86
2022/05/30 06:01:11;;;;;;;3.80;1.10;;;;;;;9.19;100.00;101265.78;4990704;28;20457;-87
2022/05/30 06:03:37;;;;;;;2.97;1.23;;;;;;;9.30;100.00;101285.13;4998416;28;20194;-86
2022/05/30 06:06:04;;;;;;;1.53;0.67;;;;;;;9.23;100.00;101271.66;4992235;28;20824;-85
2022/05/30 06:08:29;;;;;;;2.03;1.00;;;;;;;10.11;100.00;101382.69;4988622;28;20251;-84
2022/05/30 06:11:11;;;;;;;3.17;0.90;;;;;;;10.01;100.00;101339.22;4987684;28;20529;-83
2022/05/30 06:13:39;;;;;;;4.67;1.30;;;;;;;9.91;100.00;101361.75;4981755;28;20268;-81
2022/05/30 06:16:13;;;;;;;0.90;0.70;;;;;;;9.87;100.00;101298.84;4988776;28;20544;-82
2022/05/30 06:18:39;;;;;;;1.30;0.80;;;;;;;9.91;100.00;101323.41;4985106;28;20503;-83
2022/05/30 06:21:05;;;;;;;1.30;0.80;;;;;;;10.26;100.00;101361.25;4988289;28;20469;-84
2022/05/30 06:23:30;;;;;;;1.93;1.00;;;;;;;10.36;100.00;101370.75;4985241;28;20862;-83
2022/05/30 06:25:56;;;;;;;3.97;1.30;;;;;;;9.04;100.00;101279.13;4990121;28;20440;-83
2022/05/30 06:28:22;;;;;;;2.10;1.20;;;;;;;9.75;100.00;101386.03;4992879;28;20284;-84
2022/05/30 06:30:47;;;;;;;4.40;1.00;;;;;;;9.41;100.00;101276.69;4988039;28;20189;-86
2022/05/30 06:33:13;;;;;;;3.17;1.30;;;;;;;10.16;100.00;101385.66;4987530;28;20837;-86
2022/05/30 06:35:44;;;;;;;2.50;1.20;;;;;;;10.29;100.00;101369.78;4988936;28;20189;-85
2022/05/30 06:38:11;;;;;;;1.53;0.87;;;;;;;10.24;100.00;101382.06;4985325;28;20273;-85
2022/05/30 06:40:36;;;;;;;4.80;2.60;;;;;;;9.42;100.00;101307.78;4987354;28;20595;-83
2022/05/30 06:43:02;;;;;;;4.33;1.50;;;;;;;9.31;100.00;101252.81;4987299;28;21243;-80
2022/05/30 06:45:28;;;;;;;2.00;1.37;;;;;;;9.79;100.00;101394.53;4984401;28;20547;-81
2022/05/30 06:47:54;;;;;;;4.00;1.40;;;;;;;9.12;100.00;101325.59;4976961;28;20468;-79
2022/05/30 06:50:19;;;;;;;1.30;1.00;;;;;;;9.08;100.00;101324.25;4986982;28;20458;-81
2022/05/30 06:52:45;;;;;;;2.33;1.33;;;;;;;9.63;100.00;101324.03;4982751;28;20228;-79
2022/05/30 06:55:10;;;;;;;1.33;0.87;;;;;;;10.47;100.00;101414.19;4988106;28;20197;-79
2022/05/30 07:00:20;;;;;;;3.50;0.80;;;;;;;10.40;100.00;101414.09;4984205;28;20271;-79
2022/05/30 07:02:46;;;;;;;2.17;1.30;;;;;;;10.50;100.00;101406.63;4988193;28;20445;-79
2022/05/30 07:05:12;;;;;;;1.77;1.00;;;;;;;10.01;100.00;101318.66;4986370;28;20436;-80
2022/05/30 07:07:41;;;;;;;1.50;0.90;;;;;;;10.59;100.00;101402.00;4985160;28;20229;-81
2022/05/30 07:10:08;;;;;;;4.83;1.33;;;;;;;10.49;100.00;101402.28;4983935;28;20445;-81
2022/05/30 07:12:34;;;;;;;2.70;1.10;;;;;;;9.75;100.00;101265.50;4983253;28;20463;-82
2022/05/30 07:15:00;;;;;;;3.67;0.80;;;;;;;10.60;100.00;101411.72;4984697;28;20948;-81
2022/05/30 07:17:25;;;;;;;1.13;0.73;;;;;;;10.42;100.00;101377.22;4987436;28;20209;-82
2022/05/30 07:19:51;;;;;;;1.40;0.90;;;;;;;10.71;100.00;101416.63;4984748;28;20194;-81
2022/05/30 07:22:17;;;;;;;2.43;1.00;;;;;;;10.01;100.00;101344.59;4983528;28;20221;-81
2022/05/30 07:24:44;;;;;;;1.73;0.90;;;;;;;9.98;100.00;101308.28;4983392;28;20480;-79
2022/05/30 07:27:10;;;;;;;2.33;0.80;;;;;;;10.03;100.00;101331.84;4989360;28;20583;-79
2022/05/30 07:29:35;;;;;;;2.67;0.80;;;;;;;10.23;100.00;101350.91;4986216;28;20535;-79
2022/05/30 07:32:02;;;;;;;1.03;0.80;;;;;;;10.59;100.00;101408.22;4986803;28;20452;-80
2022/05/30 07:34:28;;;;;;;1.37;0.93;;;;;;;10.51;100.00;101396.72;4998197;28;20237;-83
2022/05/30 07:36:53;;;;;;;2.13;0.70;;;;;;;10.77;100.00;101428.47;4983386;28;20953;-81
2022/05/30 07:39:19;;;;;;;2.13;0.80;;;;;;;9.91;100.00;101288.59;4984485;28;20237;-82
2022/05/30 07:41:45;;;;;;;2.63;0.73;;;;;;;10.84;100.00;101419.47;5000537;28;20269;-80
2022/05/30 07:44:10;;;;;;;2.20;0.90;;;;;;;10.34;100.00;101380.81;4986635;28;20992;-79
2022/05/30 07:46:39;;;;;;;1.70;0.80;;;;;;;9.78;100.00;101272.31;4976424;28;20640;-79
2022/05/30 07:49:04;;;;;;;1.20;0.77;;;;;;;10.53;100.00;101392.00;4985438;28;20229;-79
2022/05/30 07:51:30;;;;;;;2.10;0.80;;;;;;;9.82;100.00;101271.75;4980759;28;20547;-79
2022/05/30 07:53:55;;;;;;;1.20;0.80;;;;;;;10.78;100.00;101451.59;4978053;28;20209;-80
2022/05/30 07:56:21;;;;;;;3.30;0.87;;;;;;;9.61;100.00;101234.97;4984316;28;20656;-79
2022/05/30 07:58:46;;;;;;;1.17;0.57;;;;;;;9.93;100.00;101297.28;4981763;28;20694;-78
2022/05/30 08:01:15;;;;;;;1.13;0.60;;;;;;;9.76;100.00;101282.38;4982255;28;20189;-79
2022/05/30 08:03:41;;;;;;;1.03;0.60;;;;;;;9.39;100.00;101251.91;4982277;28;20272;-78
2022/05/30 08:06:13;;;;;;;0.93;0.60;;;;;;;10.43;100.00;101356.59;4984951;28;20530;-78
2022/05/30 08:08:39;;;;;;;1.83;0.90;;;;;;;10.36;100.00;101332.38;4983245;28;20992;-78
2022/05/30 08:11:05;;;;;;;1.90;0.80;;;;;;;10.54;100.00;101378.41;4982842;28;20491;-79
2022/05/30 08:13:31;;;;;;;2.30;0.70;;;;;;;10.44;100.00;101367.13;4985530;28;20468;-78
2022/05/30 08:15:57;;;;;;;1.33;0.70;;;;;;;10.63;100.00;101419.38;5002221;28;20260;-78
2022/05/30 08:18:23;;;;;;;2.40;0.70;;;;;;;10.75;100.00;101415.22;4984886;28;20480;-78
2022/05/30 08:20:48;;;;;;;0.93;0.63;;;;;;;10.98;100.00;101423.16;4983617;28;20602;-78
2022/05/30 08:23:14;;;;;;;0.93;0.63;;;;;;;10.12;100.00;101312.81;4984918;28;20181;-78
2022/05/30 08:25:39;;;;;;;0.63;0.53;;;;;;;10.48;100.00;101330.06;4985639;28;20248;-78
2022/05/30 08:28:05;;;;;;;0.50;0.50;;;;;;;10.50;100.00;101409.31;4982634;28;20209;-77
2022/05/30 08:30:31;;;;;;;1.10;0.57;;;;;;;9.92;100.00;101323.25;4982726;28;20190;-78
2022/05/30 08:32:57;;;;;;;2.00;0.63;;;;;;;10.73;100.00;101389.59;4980143;28;21054;-78
2022/05/30 08:35:23;;;;;;;0.73;0.40;;;;;;;10.13;100.00;101252.84;4987676;28;20193;-78
2022/05/30 08:37:49;;;;;;;6.17;0.60;;;;;;;11.19;100.00;101398.22;4989576;28;20259;-80
2022/05/30 08:43:11;;;;;;;1.13;0.50;;;;;;;11.14;100.00;101338.03;4987241;28;20580;-79
2022/05/30 08:45:38;;;;;;;0.60;0.50;;;;;;;11.38;100.00;101396.78;4986729;28;20441;-80
2022/05/30 08:48:11;;;;;;;1.23;0.40;;;;;;;11.88;100.00;101395.00;4982082;28;20463;-80
2022/05/30 08:51:14;;;;;;;0.77;0.60;;;;;;;11.96;100.00;101394.88;4981298;28;20491;-79
2022/05/30 08:53:59;;;;;;;0.90;0.70;;;;;;;12.15;100.00;101390.69;4994598;28;20471;-81
2022/05/30 08:56:43;;;;;;;0.80;0.60;;;;;;;12.35;100.00;101387.28;4977902;28;20451;-79
2022/05/30 08:59:24;;;;;;;2.50;0.60;;;;;;;12.32;100.00;101395.75;4986549;28;20496;-79
2022/05/30 09:01:55;;;;;;;1.70;0.67;;;;;;;11.74;100.00;101283.00;4989093;28;21526;-80
2022/05/30 09:04:28;;;;;;;1.00;0.60;;;;;;;11.51;100.00;101300.22;4991379;28;20976;-81
2022/05/30 09:07:16;;;;;;;2.07;0.70;;;;;;;11.09;100.00;101266.16;4990406;28;20484;-81
2022/05/30 09:09:58;;;;;;;0.60;0.50;;;;;;;11.50;100.00;101408.69;5007858;28;20463;-82
2022/05/30 09:12:51;;;;;;;2.53;0.80;;;;;;;11.39;100.00;101419.91;4992032;28;20858;-77
2022/05/30 09:15:52;;;;;;;1.13;0.70;;;;;;;11.40;100.00;101421.59;4993189;28;20460;-77
2022/05/30 09:18:33;;;;;;;1.43;0.70;;;;;;;11.08;100.00;101423.72;4989503;28;20863;-77
2022/05/30 09:20:59;;;;;;;0.90;0.70;;;;;;;10.90;100.00;101382.16;4991297;28;20432;-78
2022/05/30 09:23:26;;;;;;;1.87;0.50;;;;;;;10.77;100.00;101353.34;4992568;28;20775;-78
2022/05/30 09:26:00;;;;;;;1.30;0.73;;;;;;;11.04;100.00;101398.25;4989606;28;20185;-77
2022/05/30 09:28:32;;;;;;;2.20;0.60;;;;;;;10.84;100.00;101335.44;4991821;28;20502;-78
2022/05/30 09:31:05;;;;;;;0.90;0.57;;;;;;;10.76;100.00;101370.44;4991817;28;20523;-77
2022/05/30 09:33:34;;;;;;;2.93;0.77;;;;;;;10.89;100.00;101389.41;4990607;28;20547;-77
2022/05/30 09:36:33;;;;;;;1.10;0.50;;;;;;;11.20;100.00;101420.56;4992347;28;20436;-77
2022/05/30 09:39:02;;;;;;;0.60;0.50;;;;;;;11.19;100.00;101418.88;4990303;28;20495;-77
2022/05/30 09:41:39;;;;;;;1.20;0.50;;;;;;;11.57;100.00;101432.09;4992335;28;21036;-78
2022/05/30 09:44:21;;;;;;;1.20;0.53;;;;;;;11.40;100.00;101421.59;4991465;28;20428;-77
2022/05/30 09:46:59;;;;;;;1.00;0.50;;;;;;;11.28;100.00;101390.88;4990135;28;20421;-77
2022/05/30 09:49:43;;;;;;;1.30;0.60;;;;;;;11.84;100.00;101400.94;4992690;28;20449;-78
2022/05/30 09:52:33;;;;;;;0.60;0.57;;;;;;;11.98;100.00;101419.72;4988398;28;20425;-78
2022/05/30 09:54:59;;;;;;;1.47;0.70;;;;;;;11.83;100.00;101404.63;4982498;28;20437;-79
2022/05/30 09:57:34;;;;;;;0.80;0.57;;;;;;;11.91;100.00;101418.81;4991171;28;21054;-79
2022/05/30 10:00:17;;;;;;;0.70;0.50;;;;;;;11.70;100.00;101426.88;4990305;28;20184;-79
2022/05/30 10:02:46;;;;;;;4.40;0.67;;;;;;;11.91;100.00;101412.59;4992203;28;20431;-79
2022/05/30 10:05:20;;;;;;;1.13;0.50;;;;;;;12.30;100.00;101413.97;4989032;28;20658;-79
2022/05/30 10:07:52;;;;;;;1.07;0.60;;;;;;;12.34;100.00;101404.47;5015352;23;20567;-91
2022/05/30 10:10:32;;;;;;;0.80;0.50;;;;;;;12.32;100.00;101406.50;4971942;28;20438;-92
2022/05/30 10:13:01;;;;;;;1.67;0.63;;;;;;;11.77;100.00;101387.44;4968949;28;20465;-86
2022/05/30 10:15:35;;;;;;;1.43;0.60;;;;;;;12.13;100.00;101419.63;4970427;28;20464;-87
2022/05/30 10:18:13;;;;;;;0.70;0.60;;;;;;;11.96;100.00;101413.69;4982181;28;20489;-86
2022/05/30 10:39:25;;;;;;;3.03;0.70;;;;;;;12.01;100.00;101487.59;5679633;23;20478;-79
2022/05/30 10:42:02;;;;;;;0.80;0.60;;;;;;;11.68;100.00;101359.03;5496559;23;20511;-77
2022/05/30 11:36:13;;;;;;;17.80;10.53;;;;;;;12.30;100.00;101446.25;5428815;23;20513;-79
2022/05/30 11:38:50;;;;;;;4.40;1.20;;;;;;;12.42;100.00;101447.38;5416446;22;20517;-78
2022/05/30 11:47:17;;;;;;;;;;;;;;;;;;;;;
2022/05/30 11:49:55;;;;;;;2.63;0.70;;;;;;;12.33;100.00;101456.63;4992258;28;20507;-79
2022/05/30 11:52:42;;;;;;;2.40;0.73;;;;;;;12.17;100.00;101455.84;5033830;28;20445;-79
2022/05/30 11:55:22;;;;;;;1.63;0.87;;;;;;;12.19;100.00;101440.34;5013808;28;20456;-78
2022/05/30 11:57:54;;;;;;;1.70;0.97;;;;;;;11.71;100.00;101358.66;5012813;28;20523;-78
2022/05/30 12:06:16;;;;;;;1.27;0.77;;;;;;;12.39;100.00;101412.78;5049289;28;20646;-84
2022/05/30 12:08:54;;;;;;;2.83;0.60;;;;;;;12.17;100.00;101447.78;5036084;28;20748;-85
2022/05/30 12:11:43;;;;;;;1.03;0.70;;;;;;;12.84;100.00;101443.72;5005032;28;20458;-85
2022/05/30 12:14:30;;;;;;;2.00;0.83;;;;;;;12.34;100.00;101440.25;5005357;28;20459;-85
2022/05/30 12:17:38;;;;;;;2.00;0.80;;;;;;;12.54;100.00;101444.97;5010242;28;20454;-84
2022/05/30 12:26:09;;;;;;;2.43;0.93;;;;;;;13.07;100.00;101442.56;5005939;28;20587;-84
2022/05/30 12:28:34;;;;;;;2.90;0.90;;;;;;;13.36;100.00;101443.31;5005449;28;20456;-83
2022/05/30 12:31:05;;;;;;;1.83;0.70;;;;;;;12.93;100.00;101393.22;5005902;28;20811;-80
2022/05/30 12:33:31;;;;;;;0.97;0.70;;;;;;;13.34;100.00;101451.63;5034782;28;20201;-80
2022/05/30 12:36:16;;;;;;;1.43;0.70;;;;;;;13.20;100.00;101458.78;5001804;28;20439;-79
2022/05/30 12:38:59;;;;;;;3.43;0.80;;;;;;;12.62;100.00;101329.09;5009815;28;20251;-79
2022/05/30 12:41:38;;;;;;;2.40;0.77;;;;;;;13.41;100.00;101446.25;5002651;28;20442;-82
2022/05/30 12:44:03;;;;;;;2.30;0.80;;;;;;;12.83;100.00;101433.94;5011373;28;20420;-83
2022/05/30 12:46:52;;;;;;;1.47;0.90;;;;;;;13.04;100.00;101443.78;5018951;28;20502;-80
2022/05/30 12:49:31;;;;;;;1.70;0.90;;;;;;;13.59;100.00;101446.50;5004054;28;20463;-81
2022/05/30 12:52:17;;;;;;;1.33;0.67;;;;;;;13.78;100.00;101447.56;5002859;28;20433;-80
2022/05/30 12:54:59;;;;;;;2.10;0.80;;;;;;;13.29;100.00;101446.00;5007683;28;20479;-81
2022/05/30 12:57:40;;;;;;;0.90;0.70;;;;;;;13.33;100.00;101431.91;5013957;28;20438;-79
2022/05/30 13:00:16;;;;;;;3.43;0.80;;;;;;;13.54;100.00;101467.84;5012164;28;20459;-83
2022/05/30 13:02:57;;;;;;;2.50;0.70;;;;;;;13.26;100.00;101458.00;5001824;28;20452;-82
2022/05/30 13:05:41;;;;;;;1.00;0.70;;;;;;;13.27;100.00;101467.75;5008228;28;20448;-79
2022/05/30 13:08:44;;;;;;;2.83;1.00;;;;;;;13.19;100.00;101461.66;5002991;28;20507;-79
2022/05/30 13:11:46;;;;;;;5.53;1.03;;;;;;;12.98;100.00;101463.44;5007605;28;20431;-81
2022/05/30 13:14:40;;;;;;;1.30;0.70;;;;;;;13.10;100.00;101426.00;5010180;28;20463;-79
2022/05/30 13:17:05;;;;;;;1.57;0.80;;;;;;;13.15;100.00;101469.31;4990703;28;20941;-78